createdAt,value
2022-08-19T00:01:40.464Z,173.73
2022-08-19T00:04:10.432Z,208.98
2022-08-19T00:06:39.548Z,165.38
2022-08-19T00:09:09.144Z,156.88
2022-08-19T00:11:38.950Z,156.13
2022-08-19T00:14:08.335Z,146.05
2022-08-19T00:16:36.203Z,141.85
2022-08-19T00:19:04.015Z,157.30
2022-08-19T00:21:32.257Z,169.77
2022-08-19T00:24:01.076Z,149.43
2022-08-19T00:26:29.722Z,143.32
2022-08-19T00:28:58.842Z,166.07
2022-08-19T00:31:28.806Z,167.02
2022-08-19T00:33:56.548Z,197.88
2022-08-19T00:36:24.610Z,175.07
2022-08-19T00:38:52.652Z,173.55
2022-08-19T00:41:22.389Z,163.48
2022-08-19T00:44:01.385Z,157.30
2022-08-19T00:46:29.262Z,157.35
2022-08-19T00:48:58.334Z,284.42
2022-08-19T00:51:27.503Z,216.68
2022-08-19T00:53:56.609Z,248.02
2022-08-19T00:56:24.733Z,206.15
2022-08-19T00:58:52.508Z,272.63
2022-08-19T01:01:21.563Z,181.60
2022-08-19T01:03:58.121Z,189.65
2022-08-19T01:06:26.888Z,188.85
2022-08-19T01:08:55.276Z,194.23
2022-08-19T01:11:23.190Z,210.07
2022-08-19T01:13:52.675Z,223.95
2022-08-19T01:16:24.017Z,202.15
2022-08-19T01:18:52.335Z,211.38
2022-08-19T01:21:24.320Z,187.38
2022-08-19T01:23:53.757Z,231.45
2022-08-19T01:26:24.082Z,206.48
2022-08-19T01:28:53.422Z,258.20
2022-08-19T01:31:27.377Z,221.23
2022-08-19T01:33:57.951Z,273.23
2022-08-19T01:36:29.130Z,228.70
2022-08-19T01:39:00.410Z,276.52
2022-08-19T01:41:28.183Z,258.30
2022-08-19T01:44:13.644Z,246.35
2022-08-19T01:46:45.552Z,1999.90
2022-08-19T01:49:13.325Z,1999.90
2022-08-19T01:51:41.066Z,1999.90
2022-08-19T01:54:10.657Z,1999.90
2022-08-19T01:56:39.282Z,1999.90
2022-08-19T01:59:12.617Z,1999.90
2022-08-19T02:01:40.396Z,1999.90
2022-08-19T02:04:08.414Z,1999.90
2022-08-19T02:06:36.622Z,1999.90
2022-08-19T02:09:07.402Z,1999.90
2022-08-19T02:11:38.455Z,1999.90
2022-08-19T02:14:08.086Z,1999.90
2022-08-19T02:16:36.078Z,197.45
2022-08-19T02:19:04.424Z,1999.90
2022-08-19T02:21:32.512Z,1999.90
2022-08-19T02:24:00.498Z,1999.90
2022-08-19T02:26:28.818Z,1999.90
2022-08-19T02:28:58.469Z,1999.90
2022-08-19T02:31:28.879Z,1999.90
2022-08-19T02:33:57.072Z,1999.90
2022-08-19T02:36:26.428Z,1999.90
2022-08-19T02:38:55.512Z,1999.90
2022-08-19T02:41:27.953Z,1999.90
2022-08-19T02:44:29.824Z,1999.90
2022-08-19T02:46:48.533Z,1999.90
2022-08-19T02:49:17.148Z,1999.90
2022-08-19T02:51:46.617Z,1999.90
2022-08-19T02:54:15.110Z,1999.90
2022-08-19T02:56:44.378Z,1999.90
2022-08-19T02:59:13.654Z,1999.90
2022-08-19T03:01:43.323Z,1999.90
2022-08-19T03:04:13.274Z,1999.90
2022-08-19T03:06:42.233Z,1999.90
2022-08-19T03:09:10.226Z,1999.90
2022-08-19T03:11:38.217Z,1999.90
2022-08-19T03:14:08.270Z,1999.90
2022-08-19T03:16:43.143Z,1999.90
2022-08-19T03:19:10.864Z,1999.90
2022-08-19T03:21:38.596Z,1999.90
2022-08-19T03:24:09.018Z,1999.90
2022-08-19T03:26:41.042Z,1999.90
2022-08-19T03:29:09.847Z,1999.90
2022-08-19T03:31:51.977Z,1999.90
2022-08-19T03:34:22.976Z,1999.90
2022-08-19T03:36:50.755Z,1999.90
2022-08-19T03:39:19.382Z,1999.90
2022-08-19T03:41:49.934Z,1999.90
2022-08-19T03:44:38.525Z,1999.90
2022-08-19T03:47:07.849Z,1999.90
2022-08-19T03:49:36.146Z,1999.90
2022-08-19T03:52:08.274Z,1999.90
2022-08-19T03:54:36.579Z,1999.90
2022-08-19T03:57:04.955Z,1999.90
2022-08-19T03:59:34.725Z,1999.90
2022-08-19T04:02:05.372Z,1999.90
2022-08-19T04:04:34.472Z,1999.90
2022-08-19T04:07:02.182Z,1999.90
2022-08-19T04:09:29.964Z,1999.90
2022-08-19T04:11:58.543Z,1999.90
2022-08-19T04:14:32.603Z,1999.90
2022-08-19T04:17:00.688Z,1999.90
2022-08-19T04:19:29.530Z,1999.90
2022-08-19T04:21:59.247Z,1999.90
2022-08-19T04:24:27.084Z,1999.90
2022-08-19T04:26:54.906Z,1999.90
2022-08-19T04:29:26.062Z,1999.90
2022-08-19T04:31:55.408Z,1999.90
2022-08-19T04:34:24.941Z,1999.90
2022-08-19T04:36:53.842Z,1999.90
2022-08-19T04:39:45.333Z,1999.90
2022-08-19T04:42:31.216Z,1999.90
2022-08-19T04:44:59.526Z,1999.90
2022-08-19T04:47:47.998Z,1999.90
2022-08-19T04:50:16.565Z,1999.90
2022-08-19T04:52:44.238Z,1999.90
2022-08-19T04:55:15.152Z,1999.90
2022-08-19T04:57:43.029Z,1999.90
2022-08-19T05:00:12.241Z,1999.90
2022-08-19T05:02:40.208Z,1999.90
2022-08-19T05:05:09.462Z,1999.90
2022-08-19T05:07:38.341Z,1999.90
2022-08-19T05:10:07.572Z,1999.90
2022-08-19T05:12:36.750Z,1999.90
2022-08-19T05:15:06.646Z,1999.90
2022-08-19T05:17:38.258Z,1999.90
2022-08-19T05:20:25.832Z,1999.90
2022-08-19T05:22:53.828Z,1999.90
2022-08-19T05:25:22.899Z,1999.90
2022-08-19T05:27:52.051Z,1999.90
2022-08-19T05:30:24.439Z,1999.90
2022-08-19T05:33:09.129Z,1999.90
2022-08-19T05:35:38.080Z,1999.90
2022-08-19T05:38:06.002Z,1999.90
2022-08-19T05:40:37.030Z,1999.90
2022-08-19T05:43:08.123Z,1999.90
2022-08-19T05:45:41.080Z,1999.90
2022-08-19T05:48:08.819Z,1999.90
2022-08-19T05:50:38.132Z,1999.90
2022-08-19T05:53:06.000Z,1999.90
2022-08-19T05:55:33.735Z,1999.90
2022-08-19T05:58:02.693Z,1999.90
2022-08-19T06:00:32.315Z,1999.90
2022-08-19T06:03:09.626Z,1999.90
2022-08-19T06:05:44.730Z,1999.90
2022-08-19T06:08:19.641Z,1999.90
2022-08-19T06:10:47.551Z,1999.90
2022-08-19T06:13:15.330Z,1999.90
2022-08-19T06:15:47.525Z,1999.90
2022-08-19T06:18:15.885Z,1999.90
2022-08-19T06:20:55.599Z,1999.90
2022-08-19T06:23:24.213Z,1999.90
2022-08-19T06:25:52.213Z,1999.90
2022-08-19T06:28:20.304Z,1999.90
2022-08-19T06:30:49.822Z,1999.90
2022-08-19T06:33:17.650Z,1999.90
2022-08-19T06:35:46.450Z,1999.90
2022-08-19T06:38:14.263Z,1999.90
2022-08-19T06:43:16.871Z,1999.90
2022-08-19T06:48:16.933Z,1999.90
2022-08-19T06:50:46.279Z,1999.90
2022-08-19T06:53:15.023Z,1999.90
2022-08-19T06:55:43.206Z,1999.90
2022-08-19T06:58:11.551Z,1999.90
2022-08-19T07:00:40.659Z,1999.90
2022-08-19T07:03:09.183Z,1999.90
2022-08-19T07:05:45.730Z,1999.90
2022-08-19T07:08:14.324Z,1999.90
2022-08-19T07:10:45.349Z,1999.90
2022-08-19T07:13:13.476Z,1999.90
2022-08-19T07:15:41.361Z,1999.90
2022-08-19T07:18:11.502Z,1999.90
2022-08-19T07:20:41.898Z,1999.90
2022-08-19T07:23:10.029Z,1999.90
2022-08-19T07:25:44.462Z,1999.90
2022-08-19T07:28:20.233Z,1999.90
2022-08-19T07:30:53.086Z,1999.90
2022-08-19T07:33:20.851Z,1999.90
2022-08-19T07:35:50.806Z,1999.90
2022-08-19T07:38:18.897Z,1999.90
2022-08-19T07:40:47.111Z,1999.90
2022-08-19T07:43:17.950Z,1999.90
2022-08-19T07:45:48.052Z,1999.90
2022-08-19T07:48:16.422Z,1999.90
2022-08-19T07:50:44.233Z,1999.90
2022-08-19T07:53:18.458Z,1999.90
2022-08-19T07:56:04.192Z,1999.90
2022-08-19T07:58:33.667Z,1999.90
2022-08-19T08:01:01.793Z,1999.90
2022-08-19T08:03:44.162Z,1999.90
2022-08-19T08:06:29.683Z,1999.90
2022-08-19T08:09:18.473Z,1999.90
2022-08-19T08:11:49.788Z,1999.90
2022-08-19T08:17:03.809Z,1999.90
2022-08-19T08:19:43.020Z,1999.90
2022-08-19T08:22:33.804Z,1999.90
2022-08-19T08:25:08.181Z,1999.90
2022-08-19T08:27:40.892Z,1999.90
2022-08-19T08:30:12.030Z,1999.90
2022-08-19T08:32:41.101Z,1999.90
2022-08-19T08:35:10.722Z,1999.90
2022-08-19T08:37:39.079Z,1999.90
2022-08-19T08:40:13.974Z,1999.90
2022-08-19T08:42:47.628Z,1999.90
2022-08-19T08:45:16.998Z,1999.90
2022-08-19T08:47:48.537Z,1999.90
2022-08-19T08:50:20.702Z,774.00
2022-08-19T08:52:50.426Z,1999.90
2022-08-19T08:55:24.323Z,1999.90
2022-08-19T08:57:55.978Z,1999.90
2022-08-19T09:00:27.565Z,1999.90
2022-08-19T09:02:56.110Z,1999.90
2022-08-19T09:05:25.866Z,1999.90
2022-08-19T09:07:59.125Z,1999.90
2022-08-19T09:10:31.835Z,1999.90
2022-08-19T09:13:09.431Z,1999.90
2022-08-19T09:15:41.412Z,1999.90
2022-08-19T09:18:15.329Z,1999.90
2022-08-19T09:20:48.409Z,1999.90
2022-08-19T09:23:16.655Z,1999.90
2022-08-19T09:25:45.740Z,1999.90
2022-08-19T09:28:22.355Z,1999.90
2022-08-19T09:30:54.935Z,1999.90
2022-08-19T09:33:23.439Z,1519.25
2022-08-19T09:35:53.630Z,1999.90
2022-08-19T09:38:22.000Z,1999.90
2022-08-19T09:40:51.482Z,1999.90
2022-08-19T09:43:33.068Z,1999.90
2022-08-19T09:46:10.009Z,1999.90
2022-08-19T09:48:38.386Z,1999.90
2022-08-19T09:51:12.014Z,1999.90
2022-08-19T09:53:41.218Z,1999.90
2022-08-19T09:56:10.771Z,1999.90
2022-08-19T09:58:38.994Z,1999.90
2022-08-19T10:01:08.483Z,1999.90
2022-08-19T10:03:37.608Z,1999.90
2022-08-19T10:06:14.698Z,1999.90
2022-08-19T10:08:50.255Z,1999.90
2022-08-19T10:11:27.315Z,1999.90
2022-08-19T10:13:55.858Z,1999.90
2022-08-19T10:16:26.043Z,1999.90
2022-08-19T10:18:58.753Z,1999.90
2022-08-19T10:21:28.842Z,1999.90
2022-08-19T10:24:04.826Z,1999.90
2022-08-19T10:26:37.069Z,1999.90
2022-08-19T10:29:09.328Z,1999.90
2022-08-19T10:32:00.924Z,1999.90
2022-08-19T10:34:27.774Z,1999.90
2022-08-19T10:37:01.223Z,1999.90
2022-08-19T10:39:30.999Z,1999.90
2022-08-19T10:42:00.854Z,1999.90
2022-08-19T10:44:32.261Z,1999.90
2022-08-19T10:47:00.957Z,1999.90
2022-08-19T10:49:28.832Z,1999.90
2022-08-19T10:52:18.725Z,1999.90
2022-08-19T10:58:01.278Z,1999.90
2022-08-19T11:00:27.929Z,1999.90
2022-08-19T11:02:56.748Z,1999.90
2022-08-19T11:05:24.615Z,1999.90
2022-08-19T11:07:53.115Z,1999.90
2022-08-19T11:10:22.206Z,1999.90
2022-08-19T11:12:54.089Z,1999.90
2022-08-19T11:15:21.874Z,1999.90
2022-08-19T11:17:49.641Z,1999.90
2022-08-19T11:20:18.541Z,1999.90
2022-08-19T11:22:46.591Z,1999.90
2022-08-19T11:25:16.660Z,1999.90
2022-08-19T11:27:45.830Z,1999.90
2022-08-19T11:30:16.090Z,1999.90
2022-08-19T11:32:48.747Z,1627.35
2022-08-19T11:35:18.781Z,1999.90
2022-08-19T11:37:46.521Z,1999.90
2022-08-19T11:40:14.335Z,1999.90
2022-08-19T11:42:57.815Z,1999.90
2022-08-19T11:45:28.022Z,1999.90
2022-08-19T11:47:55.843Z,1999.90
2022-08-19T11:50:28.103Z,1999.90
2022-08-19T11:52:57.081Z,1999.90
2022-08-19T11:55:28.265Z,1999.90
2022-08-19T11:57:56.081Z,1999.90
2022-08-19T12:00:25.910Z,1999.90
2022-08-19T12:02:56.024Z,1999.90
2022-08-19T12:05:23.722Z,1999.90
2022-08-19T12:07:51.433Z,1999.90
2022-08-19T12:10:24.545Z,1999.90
2022-08-19T12:12:58.571Z,1999.90
2022-08-19T12:15:37.076Z,1999.90
2022-08-19T12:18:06.103Z,1999.90
2022-08-19T12:20:37.132Z,1999.90
2022-08-19T12:23:05.514Z,1999.90
2022-08-19T12:25:34.112Z,1999.90
2022-08-19T12:28:02.805Z,1999.90
2022-08-19T12:30:33.492Z,1999.90
2022-08-19T12:33:01.192Z,1999.90
2022-08-19T12:35:30.411Z,1999.90
2022-08-19T12:37:58.325Z,1999.90
2022-08-19T12:40:26.759Z,1999.90
2022-08-19T12:42:54.760Z,1999.90
2022-08-19T12:45:23.432Z,1999.90
2022-08-19T12:47:55.270Z,1999.90
2022-08-19T12:50:24.443Z,1999.90
2022-08-19T12:52:52.226Z,1999.90
2022-08-19T12:55:20.550Z,1999.90
2022-08-19T12:57:49.439Z,1999.90
2022-08-19T13:00:19.388Z,1999.90
2022-08-19T13:02:50.640Z,1999.90
2022-08-19T13:05:23.317Z,801.78
2022-08-19T13:07:52.322Z,1999.90
2022-08-19T13:10:22.579Z,1999.90
2022-08-19T13:12:52.248Z,1999.90
2022-08-19T13:15:23.723Z,1999.90
2022-08-19T13:17:53.892Z,1999.90
2022-08-19T13:20:23.970Z,1999.90
2022-08-19T13:22:52.466Z,1999.90
2022-08-19T13:25:21.798Z,1999.90
2022-08-19T13:27:50.497Z,1999.90
2022-08-19T13:30:37.172Z,1999.90
2022-08-19T13:33:16.071Z,1999.90
2022-08-19T13:35:48.966Z,1999.90
2022-08-19T13:38:18.452Z,1999.90
2022-08-19T13:40:47.330Z,1999.90
2022-08-19T13:43:23.118Z,1999.90
2022-08-19T13:45:56.932Z,1999.90
2022-08-19T13:48:26.216Z,1999.90
2022-08-19T13:50:55.354Z,1999.90
2022-08-19T13:53:23.206Z,1999.90
2022-08-19T13:55:52.208Z,1999.90
2022-08-19T13:58:23.918Z,1999.90
2022-08-19T14:00:51.707Z,1999.90
2022-08-19T14:03:19.505Z,1999.90
2022-08-19T14:05:47.743Z,1999.90
2022-08-19T14:08:16.963Z,1999.90
2022-08-19T14:10:45.681Z,1999.90
2022-08-19T14:13:16.629Z,1999.90
2022-08-19T14:15:44.327Z,1999.90
2022-08-19T14:18:12.404Z,1999.90
2022-08-19T14:20:40.137Z,1999.90
2022-08-19T14:23:07.936Z,1999.90
2022-08-19T14:25:37.297Z,1999.90
2022-08-19T14:28:05.478Z,1999.90
2022-08-19T14:30:35.195Z,1999.90
2022-08-19T14:33:03.976Z,1999.90
2022-08-19T14:35:35.574Z,1999.90
2022-08-19T14:38:04.376Z,1999.90
2022-08-19T14:40:33.102Z,1999.90
2022-08-19T14:43:05.416Z,1999.90
2022-08-19T14:45:36.663Z,1999.90
2022-08-19T14:48:05.486Z,1999.90
2022-08-19T14:50:33.231Z,1999.90
2022-08-19T14:53:05.312Z,1999.90
2022-08-19T14:55:37.784Z,1999.90
2022-08-19T14:58:08.220Z,1999.90
2022-08-19T15:00:37.152Z,1999.90
2022-08-19T15:03:05.142Z,1999.90
2022-08-19T15:05:32.907Z,1999.90
2022-08-19T15:08:05.121Z,1999.90
2022-08-19T15:10:32.863Z,1999.90
2022-08-19T15:13:00.789Z,1999.90
2022-08-19T15:15:30.649Z,1999.90
2022-08-19T15:18:03.268Z,1999.90
2022-08-19T15:20:31.689Z,1999.90
2022-08-19T15:22:59.767Z,1999.90
2022-08-19T15:25:29.128Z,1999.90
2022-08-19T15:27:57.337Z,1999.90
2022-08-19T15:30:29.866Z,1999.90
2022-08-19T15:32:59.874Z,1999.90
2022-08-19T15:35:28.046Z,1999.90
2022-08-19T15:37:56.550Z,1999.90
2022-08-19T15:40:25.762Z,1999.90
2022-08-19T15:42:54.302Z,1999.90
2022-08-19T15:45:25.498Z,1999.90
2022-08-19T15:47:55.391Z,1999.90
2022-08-19T15:50:25.495Z,1999.90
2022-08-19T15:52:55.367Z,1999.90
2022-08-19T15:55:33.649Z,1999.90
2022-08-19T15:58:21.844Z,1999.90
2022-08-19T16:01:15.055Z,1999.90
2022-08-19T16:04:01.261Z,1999.90
2022-08-19T16:06:31.447Z,1999.90
2022-08-19T16:09:02.827Z,1999.90
2022-08-19T16:11:32.449Z,1999.90
2022-08-19T16:14:00.857Z,1999.90
2022-08-19T16:16:33.504Z,1999.90
2022-08-19T16:19:03.906Z,1999.90
2022-08-19T16:21:33.311Z,1999.90
2022-08-19T16:24:02.412Z,1999.90
2022-08-19T16:26:31.598Z,1999.90
2022-08-19T16:29:02.555Z,1999.90
2022-08-19T16:33:58.079Z,1999.90
2022-08-19T16:36:25.854Z,1999.90
2022-08-19T16:38:56.087Z,1999.90
2022-08-19T16:41:24.208Z,1999.90
2022-08-19T16:43:53.473Z,1999.90
2022-08-19T16:46:22.699Z,1999.90
2022-08-19T16:48:51.555Z,1999.90
2022-08-19T16:51:19.326Z,1999.90
2022-08-19T16:53:47.086Z,1999.90
2022-08-19T16:56:16.440Z,1999.90
2022-08-19T16:58:44.233Z,1999.90
2022-08-19T17:01:12.064Z,1999.90
2022-08-19T17:03:39.958Z,1999.90
2022-08-19T17:06:18.957Z,1999.90
2022-08-19T17:11:19.447Z,1999.90
2022-08-19T17:13:48.411Z,1999.90
2022-08-19T17:16:16.830Z,1999.90
2022-08-19T17:18:44.823Z,1999.90
2022-08-19T17:21:13.401Z,1999.90
2022-08-19T17:23:43.704Z,1999.90
2022-08-19T17:26:15.865Z,1999.90
2022-08-19T17:28:49.500Z,1999.90
2022-08-19T17:31:18.932Z,1999.90
2022-08-19T17:33:48.763Z,1999.90
2022-08-19T17:36:19.997Z,36.95
2022-08-19T17:41:17.204Z,1999.90
2022-08-19T17:43:45.173Z,1999.90
2022-08-19T17:46:18.632Z,1999.90
2022-08-19T17:48:51.862Z,1999.90
2022-08-19T17:51:24.568Z,1999.90
2022-08-19T17:53:54.172Z,1999.90
2022-08-19T17:56:23.487Z,1999.90
2022-08-19T17:59:00.056Z,1164.43
2022-08-19T18:01:43.897Z,1999.90
2022-08-19T18:04:19.734Z,1999.90
2022-08-19T18:06:53.202Z,1999.90
2022-08-19T18:09:23.813Z,19.80
2022-08-19T18:11:53.455Z,19.52
2022-08-19T18:14:28.052Z,20.30
2022-08-19T18:17:05.556Z,64.88
2022-08-19T18:19:41.275Z,70.80
2022-08-19T18:22:09.781Z,1999.90
2022-08-19T18:24:39.122Z,1999.90
2022-08-19T18:27:07.202Z,1999.90
2022-08-19T18:29:38.293Z,1999.90
2022-08-19T18:32:13.225Z,1999.90
2022-08-19T18:34:41.878Z,1999.90
2022-08-19T18:37:09.817Z,1999.90
2022-08-19T18:39:55.011Z,1999.90
2022-08-19T18:42:40.216Z,1999.90
2022-08-19T18:45:26.137Z,33.65
2022-08-19T18:48:26.554Z,1999.90
2022-08-19T18:50:56.381Z,1999.90
2022-08-19T18:53:24.185Z,11.60
2022-08-19T18:55:53.852Z,11.68
2022-08-19T18:58:26.760Z,12.77
2022-08-19T19:00:55.829Z,14.20
2022-08-19T19:03:25.356Z,15.57
2022-08-19T19:05:53.245Z,16.45
2022-08-19T19:08:27.040Z,16.30
2022-08-19T19:10:55.892Z,14.48
2022-08-19T19:13:24.041Z,14.52
2022-08-19T19:15:51.791Z,14.23
2022-08-19T19:18:19.520Z,12.98
2022-08-19T19:20:49.502Z,4.60
2022-08-19T19:23:17.291Z,3.40
2022-08-19T19:25:51.099Z,3.60
2022-08-19T19:28:27.986Z,3.70
2022-08-19T19:30:58.680Z,3.63
2022-08-19T19:33:29.180Z,15.30
2022-08-19T19:35:59.521Z,17.65
2022-08-19T19:38:27.273Z,23.70
2022-08-19T19:40:54.978Z,22.15
2022-08-19T19:43:23.158Z,18.38
2022-08-19T19:45:52.296Z,12.80
2022-08-19T19:48:20.114Z,33.38
2022-08-19T19:50:53.284Z,22.88
2022-08-19T19:53:24.071Z,24.70
2022-08-19T19:55:57.615Z,20.02
2022-08-19T19:58:28.782Z,13.75
2022-08-19T20:00:57.736Z,60.50
2022-08-19T20:03:25.514Z,7.05
2022-08-19T20:05:54.824Z,7.00
2022-08-19T20:08:41.468Z,227.77
2022-08-19T20:11:09.514Z,25.20
2022-08-19T20:13:40.538Z,24.58
2022-08-19T20:16:08.385Z,25.17
2022-08-19T20:18:36.161Z,21.70
2022-08-19T20:21:03.855Z,18.83
2022-08-19T20:23:32.964Z,14.88
2022-08-19T20:26:01.060Z,15.30
2022-08-19T20:28:29.968Z,23.27
2022-08-19T20:30:58.439Z,22.40
2022-08-19T20:33:26.462Z,23.70
2022-08-19T20:35:54.416Z,23.85
2022-08-19T20:38:23.019Z,22.02
2022-08-19T20:40:52.837Z,22.90
2022-08-19T20:43:21.528Z,19.20
2022-08-19T20:45:49.304Z,19.83
2022-08-19T20:48:17.084Z,21.30
2022-08-19T20:50:45.001Z,20.27
2022-08-19T20:53:14.598Z,20.60
2022-08-19T20:55:45.364Z,103.15
2022-08-19T20:58:14.999Z,187.18
2022-08-19T21:00:44.788Z,57.80
2022-08-19T21:03:12.949Z,27.40
2022-08-19T21:05:40.827Z,22.48
2022-08-19T21:08:09.157Z,36.67
2022-08-19T21:10:40.545Z,139.93
2022-08-19T21:13:10.222Z,151.20
2022-08-19T21:15:40.686Z,47.15
2022-08-19T21:18:08.434Z,38.03
2022-08-19T21:20:36.266Z,23.23
2022-08-19T21:23:04.570Z,1999.90
2022-08-19T21:25:32.520Z,1999.90
2022-08-19T21:28:00.488Z,1999.90
2022-08-19T21:30:28.528Z,1999.90
2022-08-19T21:32:57.693Z,1999.90
2022-08-19T21:35:25.432Z,1999.90
2022-08-19T21:37:53.529Z,1999.90
2022-08-19T21:40:21.998Z,1999.90
2022-08-19T21:42:49.771Z,1999.90
2022-08-19T21:45:18.398Z,1999.90
2022-08-19T21:47:46.268Z,16.45
2022-08-19T21:50:15.962Z,324.48
2022-08-19T21:52:43.643Z,17.20
2022-08-19T21:55:12.100Z,25.98
2022-08-19T21:57:41.489Z,28.42
2022-08-19T22:00:14.374Z,26.00
2022-08-19T22:02:43.813Z,33.58
2022-08-19T22:05:11.873Z,28.10
2022-08-19T22:07:42.900Z,21.90
2022-08-19T22:10:12.010Z,17.52
2022-08-19T22:12:51.359Z,19.45
2022-08-19T22:15:21.503Z,27.33
2022-08-19T22:17:49.796Z,34.83
2022-08-19T22:20:22.782Z,38.00
2022-08-19T22:22:56.990Z,52.38
2022-08-19T22:25:31.666Z,60.45
2022-08-19T22:28:01.570Z,57.78
2022-08-19T22:30:33.329Z,54.58
2022-08-19T22:33:04.225Z,43.95
2022-08-19T22:35:34.478Z,48.70
2022-08-19T22:38:06.419Z,53.40
2022-08-19T22:40:36.828Z,52.58
2022-08-19T22:43:06.508Z,36.95
2022-08-19T22:45:36.297Z,61.70
2022-08-19T22:48:07.699Z,49.40
2022-08-19T22:53:03.872Z,47.95
2022-08-19T22:55:32.327Z,36.90
2022-08-19T22:58:00.067Z,31.10
2022-08-19T23:00:29.116Z,26.65
2022-08-19T23:02:58.375Z,26.23
2022-08-19T23:05:28.662Z,22.88
2022-08-19T23:07:58.305Z,221.95
2022-08-19T23:10:28.915Z,17.70
2022-08-19T23:12:58.719Z,15.57
2022-08-19T23:15:28.059Z,15.05
2022-08-19T23:17:58.073Z,1999.90
2022-08-19T23:20:27.352Z,1999.90
2022-08-19T23:22:55.990Z,1999.90
2022-08-19T23:25:28.232Z,1999.90
2022-08-19T23:28:13.407Z,1999.90
2022-08-19T23:30:43.674Z,1999.90
2022-08-19T23:33:25.872Z,1999.90
2022-08-19T23:36:15.985Z,17.15
2022-08-19T23:38:45.436Z,332.45
2022-08-19T23:41:16.137Z,1999.90
2022-08-19T23:43:44.769Z,1999.90
2022-08-19T23:46:14.096Z,1999.90
2022-08-19T23:48:55.777Z,1999.90
2022-08-19T23:51:23.506Z,1999.90
2022-08-19T23:53:51.255Z,1999.90
2022-08-19T23:56:21.449Z,1999.90
2022-08-19T23:58:49.356Z,1999.90
